Rome, Georgia
Current Conditions -  °F | °C
As of 2:53 AM on Wednesday 26 Nov 2014 (Local Time) from KRMG Reporting Station
Scattered Clouds Scattered Clouds  
Wind Chill: 43°   Ceiling: Unl
Heat Index: 47°   Visibility: 10mi
Dew Point: 33°   Wind: 9mph
Humidity: 59%   Direction: 310°NW
Pressure: 30.01"   Gusts: NA
Location:  34.25°N, 85.17°W
Report Text: KRMG 260753Z AUTO 31008KT 10SM SCT110 08/01 A3001 RMK AO2 SLP156 T00830006
Loading
Personal Weather Stations






























Interactive Weather Map New forecast layout! Learn more

10-Day Weather Forecast

Advertisements
Track Severe Weather on mobile